Time;durP1;ratioP1;P1;durP2;ratioP2;P2;SDS_P1;SDS_P2;PMS_P1;PMS_P2;Temp;Humidity;BMP_temperature;BMP_pressure;BME280_temperature;BME280_humidity;BME280_pressure;Samples;Min_cycle;Max_cycle;Signal;HPM_P1;HPM_P2
2022/06/26 00:00:06;;;;;;;15.85;10.23;;;;;;;;;;4998095;28;20179;-66
2022/06/26 00:02:31;;;;;;;14.38;10.30;;;;;;;;;;4996860;28;20226;-66
2022/06/26 00:04:57;;;;;;;13.95;10.20;;;;;;;;;;4999321;28;20650;-66
2022/06/26 00:07:22;;;;;;;14.23;11.30;;;;;;;;;;5002123;28;20210;-67
2022/06/26 00:09:48;;;;;;;13.55;10.82;;;;;;;;;;5000523;28;20187;-67
2022/06/26 00:12:13;;;;;;;17.60;11.70;;;;;;;;;;5000774;28;20820;-66
2022/06/26 00:14:39;;;;;;;19.85;13.02;;;;;;;;;;5001464;28;20264;-66
2022/06/26 00:17:04;;;;;;;21.33;13.75;;;;;;;;;;4999375;28;20194;-66
2022/06/26 00:19:30;;;;;;;18.20;13.57;;;;;;;;;;5001193;28;20193;-66
2022/06/26 00:21:55;;;;;;;17.20;13.45;;;;;;;;;;5014571;28;20182;-67
2022/06/26 00:24:20;;;;;;;17.70;12.82;;;;;;;;;;4998059;28;21096;-66
2022/06/26 00:26:46;;;;;;;16.02;12.80;;;;;;;;;;4998580;28;20206;-66
2022/06/26 00:29:11;;;;;;;14.75;11.40;;;;;;;;;;5012472;28;20238;-65
2022/06/26 00:31:36;;;;;;;14.30;11.52;;;;;;;;;;4999645;28;20238;-65
2022/06/26 00:34:02;;;;;;;16.25;12.02;;;;;;;;;;4999780;28;20268;-65
2022/06/26 00:36:27;;;;;;;13.00;11.05;;;;;;;;;;4999853;28;20209;-66
2022/06/26 00:38:53;;;;;;;14.43;10.77;;;;;;;;;;4997975;28;20199;-65
2022/06/26 00:41:19;;;;;;;13.52;10.05;;;;;;;;;;4995323;28;20183;-66
2022/06/26 00:43:45;;;;;;;12.90;8.95;;;;;;;;;;4999635;28;20198;-65
2022/06/26 00:46:10;;;;;;;15.57;10.48;;;;;;;;;;4997934;28;20659;-65
2022/06/26 00:48:35;;;;;;;13.82;10.25;;;;;;;;;;4997213;28;20240;-64
2022/06/26 00:51:01;;;;;;;12.48;10.27;;;;;;;;;;4998356;28;20179;-65
2022/06/26 00:53:27;;;;;;;12.23;10.48;;;;;;;;;;4998293;28;20190;-64
2022/06/26 00:55:52;;;;;;;16.20;12.27;;;;;;;;;;4999233;28;20190;-64
2022/06/26 00:58:18;;;;;;;19.85;13.63;;;;;;;;;;4998166;28;20186;-65
2022/06/26 01:00:43;;;;;;;20.35;14.98;;;;;;;;;;4996024;28;20195;-65
2022/06/26 01:03:09;;;;;;;18.67;14.73;;;;;;;;;;4998649;28;20194;-65
2022/06/26 01:05:35;;;;;;;21.52;16.45;;;;;;;;;;5012398;28;20190;-65
2022/06/26 01:08:01;;;;;;;21.15;16.73;;;;;;;;;;4998649;28;20179;-66
2022/06/26 01:10:27;;;;;;;20.15;16.13;;;;;;;;;;4997365;28;20179;-67
2022/06/26 01:12:52;;;;;;;22.58;17.02;;;;;;;;;;4998856;28;20195;-68
2022/06/26 01:15:19;;;;;;;29.73;18.85;;;;;;;;;;4998262;28;20705;-70
2022/06/26 01:17:46;;;;;;;25.02;17.13;;;;;;;;;;4999905;28;20191;-79
2022/06/26 01:20:12;;;;;;;28.08;18.13;;;;;;;;;;4997597;28;20280;-78
2022/06/26 01:22:37;;;;;;;27.52;17.58;;;;;;;;;;4997389;28;20429;-77
2022/06/26 01:25:03;;;;;;;25.85;19.27;;;;;;;;;;5015338;28;20512;-78
2022/06/26 01:27:29;;;;;;;27.45;18.67;;;;;;;;;;5001591;28;20217;-78
2022/06/26 01:29:54;;;;;;;28.95;18.83;;;;;;;;;;4999223;28;20191;-79
2022/06/26 01:32:19;;;;;;;29.85;19.90;;;;;;;;;;4999064;28;20242;-77
2022/06/26 01:34:45;;;;;;;29.45;20.85;;;;;;;;;;4997136;28;20886;-78
2022/06/26 01:37:10;;;;;;;27.88;19.90;;;;;;;;;;5014639;28;20665;-74
2022/06/26 01:39:36;;;;;;;19.75;14.85;;;;;;;;;;4999153;28;20191;-77
2022/06/26 01:42:01;;;;;;;27.80;19.63;;;;;;;;;;4996980;28;20175;-77
2022/06/26 01:44:27;;;;;;;28.00;19.83;;;;;;;;;;5000267;28;20190;-77
2022/06/26 01:46:52;;;;;;;29.25;21.73;;;;;;;;;;5014022;28;20535;-78
2022/06/26 01:49:17;;;;;;;29.02;21.17;;;;;;;;;;5001200;28;20602;-76
2022/06/26 01:51:43;;;;;;;32.25;21.02;;;;;;;;;;4996625;28;20248;-76
2022/06/26 01:54:08;;;;;;;29.17;20.50;;;;;;;;;;4996761;28;20233;-75
2022/06/26 01:56:34;;;;;;;28.98;20.73;;;;;;;;;;5012229;28;20195;-73
2022/06/26 01:58:59;;;;;;;30.50;20.85;;;;;;;;;;5000643;28;20186;-73
2022/06/26 02:01:25;;;;;;;31.10;20.60;;;;;;;;;;4996596;28;20183;-74
2022/06/26 02:03:50;;;;;;;26.80;21.10;;;;;;;;;;4997029;28;20587;-74
2022/06/26 02:06:15;;;;;;;29.25;19.85;;;;;;;;;;4998781;28;20846;-74
2022/06/26 02:08:41;;;;;;;28.35;18.90;;;;;;;;;;4995652;28;20222;-75
2022/06/26 02:13:50;;;;;;;32.85;21.10;;;;;;;;;;4998677;28;20272;-74
2022/06/26 02:16:19;;;;;;;29.38;20.20;;;;;;;;;;4996890;28;20191;-74
2022/06/26 02:18:47;;;;;;;27.02;20.30;;;;;;;;;;4997722;28;20183;-73
2022/06/26 02:21:15;;;;;;;30.52;21.13;;;;;;;;;;4996656;28;20681;-74
2022/06/26 02:23:41;;;;;;;32.88;21.25;;;;;;;;;;4995081;28;20213;-74
2022/06/26 02:26:08;;;;;;;26.25;18.98;;;;;;;;;;4996478;28;20207;-74
2022/06/26 02:28:34;;;;;;;29.02;20.80;;;;;;;;;;4998619;28;20234;-74
2022/06/26 02:31:00;;;;;;;28.02;19.50;;;;;;;;;;4998422;28;20302;-74
2022/06/26 02:33:25;;;;;;;26.83;18.33;;;;;;;;;;4998215;28;20277;-74
2022/06/26 02:35:54;;;;;;;27.70;19.33;;;;;;;;;;4996736;28;20218;-73
2022/06/26 02:38:20;;;;;;;29.38;19.13;;;;;;;;;;4998848;28;20269;-72
2022/06/26 02:40:45;;;;;;;31.40;20.33;;;;;;;;;;4997366;28;20222;-72
2022/06/26 02:43:11;;;;;;;34.97;23.90;;;;;;;;;;4997560;28;20183;-72
2022/06/26 02:45:36;;;;;;;33.13;21.65;;;;;;;;;;4997284;28;20791;-72
2022/06/26 02:48:02;;;;;;;36.03;21.73;;;;;;;;;;4997373;28;20210;-72
2022/06/26 02:50:27;;;;;;;35.17;23.63;;;;;;;;;;4996323;28;20205;-71
2022/06/26 02:52:53;;;;;;;30.10;20.98;;;;;;;;;;4997510;28;20924;-73
2022/06/26 02:55:18;;;;;;;30.38;20.63;;;;;;;;;;4997735;28;20197;-72
2022/06/26 02:57:44;;;;;;;29.98;21.17;;;;;;;;;;4999147;28;20371;-72
2022/06/26 03:00:11;;;;;;;34.05;21.17;;;;;;;;;;4998671;28;20190;-72
2022/06/26 03:02:37;;;;;;;31.40;20.77;;;;;;;;;;5000946;28;20194;-71
2022/06/26 03:05:03;;;;;;;32.63;21.45;;;;;;;;;;5001097;28;20191;-71
2022/06/26 03:07:28;;;;;;;36.03;21.35;;;;;;;;;;5001428;28;20693;-72
2022/06/26 03:09:53;;;;;;;30.80;20.38;;;;;;;;;;5000484;28;20511;-72
2022/06/26 03:12:19;;;;;;;28.13;21.02;;;;;;;;;;5001071;28;20175;-71
2022/06/26 03:14:44;;;;;;;31.20;20.65;;;;;;;;;;5001295;28;20205;-72
2022/06/26 03:17:10;;;;;;;32.40;20.77;;;;;;;;;;5001646;28;20183;-72
2022/06/26 03:19:35;;;;;;;31.50;18.92;;;;;;;;;;5001346;28;20197;-72
2022/06/26 03:22:00;;;;;;;29.52;18.80;;;;;;;;;;5001452;28;20191;-72
2022/06/26 03:24:26;;;;;;;29.80;20.85;;;;;;;;;;5001191;28;20647;-72
2022/06/26 03:26:51;;;;;;;31.40;20.95;;;;;;;;;;4999198;28;20582;-72
2022/06/26 03:29:17;;;;;;;30.88;20.08;;;;;;;;;;5000673;28;20333;-71
2022/06/26 03:31:42;;;;;;;31.00;20.35;;;;;;;;;;4998574;28;20233;-72
2022/06/26 03:34:08;;;;;;;25.77;17.85;;;;;;;;;;5000866;28;20195;-72
2022/06/26 03:36:34;;;;;;;32.25;19.67;;;;;;;;;;5001865;28;20553;-72
2022/06/26 03:39:00;;;;;;;25.67;17.85;;;;;;;;;;5003550;28;20199;-72
2022/06/26 03:41:26;;;;;;;29.67;17.58;;;;;;;;;;5000949;28;20183;-72
2022/06/26 03:43:52;;;;;;;24.67;16.15;;;;;;;;;;5015146;28;20285;-71
2022/06/26 03:46:17;;;;;;;25.77;17.25;;;;;;;;;;5014354;28;20743;-72
2022/06/26 03:48:43;;;;;;;26.08;17.33;;;;;;;;;;5000124;28;20274;-72
2022/06/26 03:51:09;;;;;;;29.98;18.33;;;;;;;;;;5000231;28;20326;-71
2022/06/26 03:53:35;;;;;;;28.60;17.15;;;;;;;;;;5001634;28;20586;-71
2022/06/26 03:56:00;;;;;;;25.60;16.60;;;;;;;;;;5000118;28;20209;-71
2022/06/26 03:58:26;;;;;;;27.48;17.10;;;;;;;;;;5001221;28;20190;-71
2022/06/26 04:00:52;;;;;;;22.17;15.50;;;;;;;;;;5001511;28;20240;-71
2022/06/26 04:03:19;;;;;;;21.77;15.13;;;;;;;;;;4999088;28;20348;-71
2022/06/26 04:05:44;;;;;;;25.75;15.45;;;;;;;;;;5002126;28;20186;-72
2022/06/26 04:08:09;;;;;;;22.48;15.40;;;;;;;;;;5001843;28;20240;-71
2022/06/26 04:10:35;;;;;;;22.65;15.80;;;;;;;;;;4997904;28;20253;-71
2022/06/26 04:13:07;;;;;;;23.30;15.50;;;;;;;;;;5000807;28;20218;-71
2022/06/26 04:15:35;;;;;;;25.35;16.83;;;;;;;;;;4999790;28;20568;-69
2022/06/26 04:18:02;;;;;;;22.95;16.33;;;;;;;;;;5000405;28;20213;-71
2022/06/26 04:20:28;;;;;;;26.52;16.08;;;;;;;;;;5000574;28;20191;-71
2022/06/26 04:22:57;;;;;;;20.25;15.75;;;;;;;;;;4998956;28;20264;-69
2022/06/26 04:25:23;;;;;;;18.08;13.38;;;;;;;;;;4998119;28;20270;-69
2022/06/26 04:27:49;;;;;;;17.90;13.35;;;;;;;;;;4998569;28;20666;-70
2022/06/26 04:30:15;;;;;;;19.27;12.90;;;;;;;;;;4999604;28;20182;-70
2022/06/26 04:32:40;;;;;;;15.60;12.65;;;;;;;;;;4999682;28;21177;-68
2022/06/26 04:35:06;;;;;;;16.60;11.95;;;;;;;;;;4999243;28;20509;-69
2022/06/26 04:37:31;;;;;;;18.15;11.23;;;;;;;;;;4999257;28;20216;-68
2022/06/26 04:39:56;;;;;;;14.73;11.10;;;;;;;;;;5000015;28;20902;-68
2022/06/26 04:42:22;;;;;;;14.80;10.93;;;;;;;;;;5000314;28;20195;-68
2022/06/26 04:44:47;;;;;;;13.90;9.93;;;;;;;;;;4997856;28;20225;-69
2022/06/26 04:47:12;;;;;;;10.98;9.75;;;;;;;;;;4999961;28;20221;-67
2022/06/26 04:49:38;;;;;;;11.85;9.52;;;;;;;;;;4997791;28;20210;-68
2022/06/26 04:52:04;;;;;;;14.10;10.07;;;;;;;;;;4998388;28;20210;-69
2022/06/26 04:54:29;;;;;;;14.27;10.40;;;;;;;;;;4997381;28;20768;-69
2022/06/26 04:56:54;;;;;;;15.07;10.82;;;;;;;;;;4997239;28;20186;-68
2022/06/26 04:59:20;;;;;;;14.40;10.70;;;;;;;;;;4998610;28;20195;-69
2022/06/26 05:01:45;;;;;;;13.48;10.68;;;;;;;;;;4997162;28;20191;-67
2022/06/26 05:04:11;;;;;;;11.80;10.27;;;;;;;;;;4999283;28;20221;-68
2022/06/26 05:06:37;;;;;;;13.68;9.88;;;;;;;;;;4998590;28;20241;-68
2022/06/26 05:09:02;;;;;;;13.05;10.20;;;;;;;;;;4998671;28;20182;-67
2022/06/26 05:11:27;;;;;;;10.07;8.95;;;;;;;;;;4998949;28;20304;-67
2022/06/26 05:13:54;;;;;;;12.43;9.45;;;;;;;;;;4999304;28;20187;-68
2022/06/26 05:16:19;;;;;;;11.77;10.27;;;;;;;;;;5001212;28;20213;-69
2022/06/26 05:18:44;;;;;;;12.65;10.68;;;;;;;;;;4996468;28;20695;-66
2022/06/26 05:21:10;;;;;;;14.13;11.15;;;;;;;;;;4997014;28;20666;-67
2022/06/26 05:23:35;;;;;;;12.82;9.85;;;;;;;;;;4999309;28;20183;-67
2022/06/26 05:26:01;;;;;;;11.90;10.52;;;;;;;;;;4997215;28;21071;-66
2022/06/26 05:28:26;;;;;;;12.43;9.90;;;;;;;;;;4998299;28;20231;-68
2022/06/26 05:30:52;;;;;;;10.70;9.48;;;;;;;;;;5012653;28;20521;-69
2022/06/26 05:33:17;;;;;;;12.30;9.82;;;;;;;;;;4998036;28;20193;-67
2022/06/26 05:35:42;;;;;;;14.05;9.70;;;;;;;;;;4997712;28;20190;-68
2022/06/26 05:38:08;;;;;;;11.07;9.75;;;;;;;;;;4995625;28;20630;-66
2022/06/26 05:40:33;;;;;;;11.65;10.00;;;;;;;;;;4998005;28;20495;-67
2022/06/26 05:42:58;;;;;;;11.20;9.32;;;;;;;;;;4995120;28;20202;-66
2022/06/26 05:45:24;;;;;;;10.80;9.70;;;;;;;;;;4996552;28;20423;-68
2022/06/26 05:47:49;;;;;;;10.38;9.07;;;;;;;;;;4996814;28;20287;-67
2022/06/26 05:50:15;;;;;;;12.65;9.80;;;;;;;;;;4998724;28;20962;-67
2022/06/26 05:52:40;;;;;;;11.45;9.70;;;;;;;;;;4998002;28;20202;-67
2022/06/26 05:55:07;;;;;;;10.95;9.25;;;;;;;;;;4998078;28;20245;-67
2022/06/26 05:57:32;;;;;;;10.20;9.18;;;;;;;;;;4996778;28;20213;-67
2022/06/26 05:59:58;;;;;;;11.00;9.20;;;;;;;;;;4993092;28;20266;-68
2022/06/26 06:02:23;;;;;;;11.15;8.55;;;;;;;;;;4996428;28;20196;-67
2022/06/26 06:04:49;;;;;;;8.45;7.57;;;;;;;;;;4995406;28;20186;-69
2022/06/26 06:07:14;;;;;;;9.98;8.80;;;;;;;;;;4996177;28;20231;-68
2022/06/26 06:09:40;;;;;;;10.27;8.80;;;;;;;;;;4997595;28;20182;-67
2022/06/26 06:12:05;;;;;;;12.60;9.00;;;;;;;;;;4995905;28;20245;-66
2022/06/26 06:14:31;;;;;;;12.98;9.35;;;;;;;;;;4997095;28;20187;-68
2022/06/26 06:16:56;;;;;;;10.35;9.23;;;;;;;;;;4995224;28;20418;-68
2022/06/26 06:19:21;;;;;;;12.13;9.70;;;;;;;;;;4997922;28;20222;-68
2022/06/26 06:21:47;;;;;;;12.43;9.15;;;;;;;;;;4997758;28;20723;-66
2022/06/26 06:24:12;;;;;;;10.40;8.45;;;;;;;;;;4996195;28;20262;-67
2022/06/26 06:26:38;;;;;;;11.82;9.90;;;;;;;;;;4997719;28;20726;-67
2022/06/26 06:29:03;;;;;;;10.98;9.85;;;;;;;;;;4996220;28;20334;-68
2022/06/26 06:31:29;;;;;;;13.07;10.90;;;;;;;;;;4997109;28;20217;-67
2022/06/26 06:33:54;;;;;;;13.73;10.05;;;;;;;;;;4998707;28;20178;-68
2022/06/26 06:36:19;;;;;;;13.60;10.25;;;;;;;;;;4997152;28;20645;-68
2022/06/26 06:38:45;;;;;;;11.95;10.30;;;;;;;;;;4999736;28;20276;-65
2022/06/26 06:41:10;;;;;;;12.00;9.88;;;;;;;;;;4999517;28;20607;-66
2022/06/26 06:43:36;;;;;;;12.90;9.15;;;;;;;;;;5000285;28;20222;-66
2022/06/26 06:46:01;;;;;;;11.25;8.55;;;;;;;;;;5001432;28;20345;-70
2022/06/26 06:48:27;;;;;;;10.63;8.80;;;;;;;;;;4999769;28;20499;-67
2022/06/26 06:50:53;;;;;;;11.70;8.85;;;;;;;;;;5001123;28;20681;-67
2022/06/26 06:53:19;;;;;;;10.00;7.43;;;;;;;;;;4997973;28;20194;-66
2022/06/26 06:55:45;;;;;;;12.98;8.50;;;;;;;;;;5000965;28;20187;-65
2022/06/26 06:58:10;;;;;;;10.35;8.82;;;;;;;;;;5001191;28;20191;-66
2022/06/26 07:00:36;;;;;;;12.65;8.50;;;;;;;;;;4999706;28;20582;-66
2022/06/26 07:03:03;;;;;;;11.75;9.35;;;;;;;;;;4998832;28;20631;-67
2022/06/26 07:05:29;;;;;;;10.52;9.25;;;;;;;;;;5000973;28;20225;-66
2022/06/26 07:07:54;;;;;;;11.10;8.85;;;;;;;;;;4302856;28;10000778;-67
2022/06/26 07:10:20;;;;;;;12.48;8.98;;;;;;;;;;4997272;28;21127;-66
2022/06/26 07:12:57;;;;;;;14.43;9.00;;;;;;;;;;4996230;28;20190;-66
2022/06/26 07:15:23;;;;;;;12.55;9.23;;;;;;;;;;5011061;28;20250;-67
2022/06/26 07:17:48;;;;;;;11.90;8.60;;;;;;;;;;4997551;28;20666;-69
2022/06/26 07:20:14;;;;;;;15.48;8.68;;;;;;;;;;4997049;28;20592;-67
2022/06/26 07:22:39;;;;;;;11.93;7.97;;;;;;;;;;4995897;28;20378;-68
2022/06/26 07:25:05;;;;;;;12.60;8.35;;;;;;;;;;4998051;28;20195;-67
2022/06/26 07:27:31;;;;;;;8.98;6.65;;;;;;;;;;4995795;28;20211;-66
2022/06/26 07:29:56;;;;;;;11.38;7.18;;;;;;;;;;4996309;28;20648;-68
2022/06/26 07:32:21;;;;;;;8.52;6.78;;;;;;;;;;4992846;28;20221;-68
2022/06/26 07:34:47;;;;;;;11.40;6.13;;;;;;;;;;4995801;28;20274;-66
2022/06/26 07:37:12;;;;;;;8.80;5.75;;;;;;;;;;4997122;28;20206;-67
2022/06/26 07:39:38;;;;;;;6.13;4.60;;;;;;;;;;4995344;28;20199;-67
2022/06/26 07:42:04;;;;;;;10.65;4.38;;;;;;;;;;4995787;28;20190;-66
2022/06/26 07:44:30;;;;;;;6.35;4.00;;;;;;;;;;4996899;28;20297;-66
2022/06/26 07:46:57;;;;;;;8.60;4.43;;;;;;;;;;4994637;28;20540;-67
2022/06/26 07:49:22;;;;;;;6.30;4.65;;;;;;;;;;4997180;28;20213;-66
2022/06/26 07:51:49;;;;;;;4.47;3.53;;;;;;;;;;4996254;28;20558;-67
2022/06/26 07:54:14;;;;;;;6.70;3.50;;;;;;;;;;4996307;28;20202;-67
2022/06/26 07:56:40;;;;;;;5.55;3.20;;;;;;;;;;4996573;28;20222;-67
2022/06/26 07:59:07;;;;;;;5.47;2.95;;;;;;;;;;4997446;28;20206;-67
2022/06/26 08:01:33;;;;;;;4.22;2.90;;;;;;;;;;4996881;28;20229;-67
2022/06/26 08:03:59;;;;;;;4.50;3.65;;;;;;;;;;4994260;28;22857;-68
2022/06/26 08:06:25;;;;;;;5.43;3.20;;;;;;;;;;4994132;28;20214;-68
2022/06/26 08:08:50;;;;;;;6.50;3.72;;;;;;;;;;4993754;28;20191;-65
2022/06/26 08:11:16;;;;;;;7.43;4.25;;;;;;;;;;4996696;28;20630;-67
2022/06/26 08:13:41;;;;;;;5.05;3.85;;;;;;;;;;4995087;28;20620;-66
2022/06/26 08:16:07;;;;;;;5.78;3.83;;;;;;;;;;4996683;28;20248;-65
2022/06/26 08:18:32;;;;;;;8.38;4.10;;;;;;;;;;4994635;28;20194;-67
2022/06/26 08:22:00;;;;;;;6.95;3.58;;;;;;;;;;4996212;28;20218;-67
2022/06/26 08:23:43;;;;;;;7.75;3.42;;;;;;;;;;4995899;28;20214;-66
2022/06/26 08:26:08;;;;;;;7.45;3.45;;;;;;;;;;4997639;28;20207;-66
2022/06/26 08:28:34;;;;;;;3.90;3.30;;;;;;;;;;4997112;28;20235;-66
2022/06/26 08:30:59;;;;;;;3.67;3.03;;;;;;;;;;4992988;28;20218;-65
2022/06/26 08:33:24;;;;;;;4.28;2.60;;;;;;;;;;4996367;28;20286;-65
2022/06/26 08:35:49;;;;;;;4.05;2.63;;;;;;;;;;4995061;28;20320;-67
2022/06/26 08:38:15;;;;;;;6.47;2.95;;;;;;;;;;4993879;28;20293;-66
2022/06/26 08:40:42;;;;;;;4.03;3.35;;;;;;;;;;4994499;28;20340;-68
2022/06/26 08:43:08;;;;;;;6.90;3.47;;;;;;;;;;5010983;28;20327;-67
2022/06/26 08:45:34;;;;;;;5.65;3.40;;;;;;;;;;4994338;28;20186;-66
2022/06/26 08:48:00;;;;;;;6.30;3.60;;;;;;;;;;4993262;28;20619;-65
2022/06/26 08:50:27;;;;;;;4.38;3.47;;;;;;;;;;4997270;28;20187;-66
2022/06/26 08:52:53;;;;;;;6.22;3.78;;;;;;;;;;4992936;28;20571;-66
2022/06/26 08:55:20;;;;;;;4.63;3.33;;;;;;;;;;4995268;28;20628;-66
2022/06/26 08:57:47;;;;;;;5.30;3.90;;;;;;;;;;4995903;28;20179;-67
2022/06/26 09:00:14;;;;;;;5.93;3.90;;;;;;;;;;4995735;28;20191;-66
2022/06/26 09:02:39;;;;;;;5.43;3.90;;;;;;;;;;5009672;28;20231;-65
2022/06/26 09:05:05;;;;;;;5.35;3.55;;;;;;;;;;4994814;28;20649;-69
2022/06/26 09:07:30;;;;;;;8.27;3.83;;;;;;;;;;4995382;28;20218;-67
2022/06/26 09:09:56;;;;;;;6.25;3.75;;;;;;;;;;4994587;28;20889;-64
2022/06/26 09:12:21;;;;;;;6.40;4.00;;;;;;;;;;4995839;28;20222;-64
2022/06/26 09:14:52;;;;;;;4.60;3.55;;;;;;;;;;4998078;28;20190;-66
2022/06/26 09:17:22;;;;;;;4.47;3.80;;;;;;;;;;4997235;28;20182;-65
2022/06/26 09:19:51;;;;;;;3.88;3.17;;;;;;;;;;4996838;28;20225;-64
2022/06/26 09:22:16;;;;;;;6.53;2.75;;;;;;;;;;4998273;28;20190;-64
2022/06/26 09:24:53;;;;;;;6.07;3.60;;;;;;;;;;4998797;28;20174;-65
2022/06/26 09:27:21;;;;;;;4.32;3.03;;;;;;;;;;4998005;28;20210;-65
2022/06/26 09:29:52;;;;;;;5.60;4.05;;;;;;;;;;4998674;28;20230;-65
2022/06/26 09:32:19;;;;;;;7.18;3.65;;;;;;;;;;4997420;28;20213;-65
2022/06/26 09:34:47;;;;;;;7.35;3.25;;;;;;;;;;4995530;28;20827;-67
2022/06/26 09:37:13;;;;;;;4.07;3.33;;;;;;;;;;4996256;28;20191;-65
2022/06/26 09:39:38;;;;;;;4.78;3.55;;;;;;;;;;4997107;28;20190;-66
2022/06/26 09:42:15;;;;;;;5.28;3.50;;;;;;;;;;4997071;28;20281;-65
2022/06/26 09:44:46;;;;;;;6.95;3.67;;;;;;;;;;4995782;28;20190;-67
2022/06/26 09:47:34;;;;;;;4.65;3.15;;;;;;;;;;4997522;28;20210;-65
2022/06/26 09:50:04;;;;;;;7.22;3.35;;;;;;;;;;4996600;28;20187;-64
2022/06/26 09:52:31;;;;;;;4.93;3.38;;;;;;;;;;4996058;28;20187;-64
2022/06/26 09:54:59;;;;;;;6.30;2.75;;;;;;;;;;4996695;28;20199;-65
2022/06/26 09:57:26;;;;;;;5.72;2.88;;;;;;;;;;4994996;28;20186;-65
2022/06/26 09:59:51;;;;;;;5.03;2.80;;;;;;;;;;4995027;28;20196;-65
2022/06/26 10:08:06;;;;;;;5.00;3.05;;;;;;;;;;4995537;28;20258;-66
2022/06/26 10:10:33;;;;;;;6.13;3.03;;;;;;;;;;4993323;28;20198;-65
2022/06/26 10:13:02;;;;;;;4.38;3.40;;;;;;;;;;4994294;28;20540;-64
2022/06/26 10:15:32;;;;;;;3.45;2.88;;;;;;;;;;4994116;28;20186;-68
2022/06/26 10:18:09;;;;;;;4.18;3.25;;;;;;;;;;4993948;28;20273;-66
2022/06/26 10:20:37;;;;;;;4.00;2.78;;;;;;;;;;4994866;28;20226;-67
2022/06/26 10:23:02;;;;;;;5.30;3.10;;;;;;;;;;4997198;28;20553;-67
2022/06/26 10:25:30;;;;;;;4.60;2.72;;;;;;;;;;4996182;28;20202;-66
2022/06/26 10:27:56;;;;;;;4.82;2.80;;;;;;;;;;4996406;28;20816;-66
2022/06/26 10:30:23;;;;;;;4.78;2.45;;;;;;;;;;4997193;28;20214;-66
2022/06/26 10:33:19;;;;;;;6.78;3.30;;;;;;;;;;4995816;28;20277;-67
2022/06/26 10:35:49;;;;;;;5.15;2.53;;;;;;;;;;4996884;28;20178;-65
2022/06/26 10:38:23;;;;;;;3.33;2.50;;;;;;;;;;5011778;28;20187;-67
2022/06/26 10:44:06;;;;;;;4.72;2.75;;;;;;;;;;4996382;28;20551;-67
2022/06/26 10:46:36;;;;;;;5.45;2.70;;;;;;;;;;4996598;28;20202;-66
2022/06/26 10:49:06;;;;;;;3.50;2.65;;;;;;;;;;4996839;28;20186;-66
2022/06/26 10:51:32;;;;;;;4.05;2.38;;;;;;;;;;4997516;28;20175;-66
2022/06/26 10:53:57;;;;;;;7.55;2.92;;;;;;;;;;4996009;28;20536;-67
2022/06/26 10:56:23;;;;;;;3.85;2.50;;;;;;;;;;4996899;28;20257;-66
2022/06/26 10:58:49;;;;;;;4.63;2.83;;;;;;;;;;4994281;28;20591;-66
2022/06/26 11:01:16;;;;;;;6.93;2.65;;;;;;;;;;4993328;28;20199;-66
2022/06/26 11:03:42;;;;;;;4.90;2.92;;;;;;;;;;4992742;28;20183;-67
2022/06/26 11:06:10;;;;;;;6.07;2.53;;;;;;;;;;4995856;28;20462;-66
2022/06/26 11:08:47;;;;;;;3.92;2.90;;;;;;;;;;4996028;28;20179;-67
2022/06/26 11:11:20;;;;;;;3.95;2.55;;;;;;;;;;4994902;28;20616;-66
2022/06/26 11:13:55;;;;;;;4.15;2.97;;;;;;;;;;4993310;28;20875;-66
2022/06/26 11:16:31;;;;;;;4.95;3.10;;;;;;;;;;4995386;28;20193;-67
2022/06/26 11:18:58;;;;;;;4.72;3.28;;;;;;;;;;4993529;28;20269;-65
2022/06/26 11:21:23;;;;;;;4.15;2.83;;;;;;;;;;4996027;28;20654;-66
2022/06/26 11:23:51;;;;;;;5.10;2.30;;;;;;;;;;4997623;28;20191;-65
2022/06/26 11:26:22;;;;;;;3.90;2.80;;;;;;;;;;4997410;28;20349;-66
2022/06/26 11:28:55;;;;;;;3.95;2.42;;;;;;;;;;4994820;28;20300;-65
2022/06/26 11:31:24;;;;;;;4.85;2.40;;;;;;;;;;4996660;28;20216;-65
2022/06/26 11:33:49;;;;;;;6.93;3.10;;;;;;;;;;4997809;28;20538;-65
2022/06/26 11:36:16;;;;;;;4.38;2.97;;;;;;;;;;4997038;28;20194;-66
2022/06/26 11:38:49;;;;;;;5.35;2.63;;;;;;;;;;4999679;28;20191;-65
2022/06/26 11:41:15;;;;;;;3.25;2.33;;;;;;;;;;4999683;28;20235;-65
2022/06/26 11:43:49;;;;;;;5.47;2.60;;;;;;;;;;4999318;28;21238;-65
2022/06/26 11:46:15;;;;;;;3.92;2.17;;;;;;;;;;4997020;28;20299;-65
2022/06/26 11:48:41;;;;;;;3.33;2.10;;;;;;;;;;4997293;28;20187;-66
2022/06/26 11:51:06;;;;;;;3.38;2.40;;;;;;;;;;4999345;28;21898;-64
2022/06/26 11:53:33;;;;;;;4.22;2.28;;;;;;;;;;5000079;28;20183;-64
2022/06/26 11:56:01;;;;;;;4.43;2.33;;;;;;;;;;4998760;28;20565;-65
2022/06/26 11:58:29;;;;;;;4.60;2.25;;;;;;;;;;4999410;28;20185;-65
2022/06/26 12:01:12;;;;;;;4.53;2.30;;;;;;;;;;5000325;28;20760;-65
2022/06/26 12:03:43;;;;;;;5.57;2.30;;;;;;;;;;4998871;28;20201;-65
2022/06/26 12:06:09;;;;;;;4.03;2.40;;;;;;;;;;4999191;28;20198;-64
2022/06/26 12:08:34;;;;;;;5.40;2.38;;;;;;;;;;4997103;28;20190;-65
2022/06/26 12:11:01;;;;;;;4.38;2.28;;;;;;;;;;4997619;28;20265;-65
2022/06/26 12:13:32;;;;;;;3.83;2.08;;;;;;;;;;4999264;28;20227;-65
2022/06/26 12:16:09;;;;;;;4.85;1.70;;;;;;;;;;4998722;28;20193;-69
2022/06/26 12:18:39;;;;;;;2.85;1.80;;;;;;;;;;4997963;28;20754;-66
2022/06/26 12:21:20;;;;;;;5.10;2.40;;;;;;;;;;4999348;28;20191;-65
2022/06/26 12:23:47;;;;;;;2.60;2.00;;;;;;;;;;4997942;28;20682;-65
2022/06/26 12:26:17;;;;;;;2.95;1.70;;;;;;;;;;4998901;28;20570;-65
2022/06/26 12:28:58;;;;;;;3.28;1.88;;;;;;;;;;4996512;28;20237;-65
2022/06/26 12:31:24;;;;;;;4.40;1.95;;;;;;;;;;4997951;28;20210;-66
2022/06/26 12:33:50;;;;;;;3.38;1.63;;;;;;;;;;4995667;28;20559;-67
2022/06/26 12:36:16;;;;;;;5.57;1.63;;;;;;;;;;4998245;28;20167;-67
2022/06/26 12:38:42;;;;;;;3.10;1.75;;;;;;;;;;4997948;28;20241;-64
2022/06/26 12:41:16;;;;;;;4.35;1.80;;;;;;;;;;4995994;28;20175;-65
2022/06/26 12:43:43;;;;;;;3.00;2.03;;;;;;;;;;4997443;28;20597;-65
2022/06/26 12:46:09;;;;;;;3.63;1.85;;;;;;;;;;4998109;28;20186;-66
2022/06/26 12:48:34;;;;;;;2.65;1.77;;;;;;;;;;4998929;28;20555;-64
2022/06/26 12:50:59;;;;;;;4.03;1.60;;;;;;;;;;4999601;28;20697;-64
2022/06/26 12:53:25;;;;;;;4.50;1.77;;;;;;;;;;4996428;28;20638;-64
2022/06/26 12:55:50;;;;;;;3.03;2.05;;;;;;;;;;4998045;28;20658;-65
2022/06/26 12:58:15;;;;;;;2.97;1.80;;;;;;;;;;5000300;28;20182;-65
2022/06/26 13:00:41;;;;;;;4.20;1.98;;;;;;;;;;4995321;28;20190;-65
2022/06/26 13:03:06;;;;;;;3.35;1.77;;;;;;;;;;4995315;28;20191;-65
2022/06/26 13:05:32;;;;;;;4.53;1.83;;;;;;;;;;4996940;28;20754;-64
2022/06/26 13:07:57;;;;;;;2.50;1.77;;;;;;;;;;4996219;28;20205;-64
2022/06/26 13:10:22;;;;;;;5.57;2.30;;;;;;;;;;4997299;28;20264;-64
2022/06/26 13:12:48;;;;;;;4.38;1.67;;;;;;;;;;4997363;28;20181;-64
2022/06/26 13:15:13;;;;;;;3.25;1.65;;;;;;;;;;4997823;28;20602;-65
2022/06/26 13:17:38;;;;;;;2.90;1.65;;;;;;;;;;4995091;28;20202;-64
2022/06/26 13:20:05;;;;;;;4.03;1.80;;;;;;;;;;4996107;28;20818;-64
2022/06/26 13:22:30;;;;;;;5.13;1.80;;;;;;;;;;4998651;28;20206;-64
2022/06/26 13:24:55;;;;;;;3.38;1.80;;;;;;;;;;4998254;28;20638;-64
2022/06/26 13:27:21;;;;;;;5.03;2.25;;;;;;;;;;4998092;28;20264;-65
2022/06/26 13:29:46;;;;;;;3.78;1.83;;;;;;;;;;4994591;28;20716;-64
2022/06/26 13:32:11;;;;;;;6.38;2.20;;;;;;;;;;4997529;28;20203;-64
2022/06/26 13:34:37;;;;;;;2.33;1.70;;;;;;;;;;4996101;28;20175;-65
2022/06/26 13:37:03;;;;;;;3.20;2.20;;;;;;;;;;4995924;28;20500;-64
2022/06/26 13:39:28;;;;;;;2.00;1.80;;;;;;;;;;4993235;28;20198;-65
2022/06/26 13:41:54;;;;;;;3.80;2.17;;;;;;;;;;4993331;28;20557;-65
2022/06/26 13:44:19;;;;;;;3.72;2.00;;;;;;;;;;4993596;28;20182;-64
2022/06/26 13:46:46;;;;;;;9.10;2.45;;;;;;;;;;4995902;28;20207;-64
2022/06/26 13:49:11;;;;;;;3.10;2.10;;;;;;;;;;4996367;28;20183;-65
2022/06/26 13:51:40;;;;;;;3.30;2.15;;;;;;;;;;4994685;28;20198;-64
2022/06/26 13:54:06;;;;;;;4.55;2.40;;;;;;;;;;4993623;28;20986;-64
2022/06/26 13:56:31;;;;;;;5.88;2.40;;;;;;;;;;4994247;28;20191;-65
2022/06/26 13:58:57;;;;;;;7.93;2.95;;;;;;;;;;4994804;28;20276;-65
2022/06/26 14:01:24;;;;;;;5.20;2.55;;;;;;;;;;4995615;28;20189;-65
2022/06/26 14:03:49;;;;;;;4.03;2.30;;;;;;;;;;4994423;28;20186;-65
2022/06/26 14:06:15;;;;;;;5.13;2.40;;;;;;;;;;4996204;28;20249;-65
2022/06/26 14:08:40;;;;;;;6.20;2.63;;;;;;;;;;4995114;28;20228;-65
2022/06/26 14:11:06;;;;;;;3.95;2.58;;;;;;;;;;4995929;28;20199;-64
2022/06/26 14:13:31;;;;;;;3.95;2.80;;;;;;;;;;4995900;28;20738;-65
2022/06/26 14:15:56;;;;;;;4.40;2.30;;;;;;;;;;4995236;28;20274;-65
2022/06/26 14:18:23;;;;;;;5.22;2.97;;;;;;;;;;4995330;28;20198;-65
2022/06/26 14:20:50;;;;;;;5.82;3.10;;;;;;;;;;4994996;28;20174;-65
2022/06/26 14:26:00;;;;;;;5.30;2.88;;;;;;;;;;4993080;28;20243;-66
2022/06/26 14:28:28;;;;;;;3.80;2.60;;;;;;;;;;4991747;28;20274;-64
2022/06/26 14:30:56;;;;;;;4.57;2.40;;;;;;;;;;4990582;28;20221;-64
2022/06/26 14:33:21;;;;;;;7.72;3.13;;;;;;;;;;4991726;28;20201;-67
2022/06/26 14:35:47;;;;;;;6.38;2.80;;;;;;;;;;4990663;28;20728;-64
2022/06/26 14:38:14;;;;;;;5.10;3.20;;;;;;;;;;4991992;28;20308;-65
2022/06/26 14:40:39;;;;;;;5.05;3.03;;;;;;;;;;5009908;28;20274;-65